Time;durP1;ratioP1;P1;durP2;ratioP2;P2;SDS_P1;SDS_P2;PMS_P1;PMS_P2;Temp;Humidity;BMP_temperature;BMP_pressure;BME280_temperature;BME280_humidity;BME280_pressure;Samples;Min_cycle;Max_cycle;Signal;HPM_P1;HPM_P2
2021/10/11 00:02:08;;;;;;;14.23;7.80;;;23.10;57.80;;;;;;5199342;28;20052;-82
2021/10/11 00:04:43;;;;;;;14.63;6.60;;;23.10;57.80;;;;;;5211702;28;20044;-81
2021/10/11 00:07:17;;;;;;;10.73;6.38;;;23.10;57.80;;;;;;5216307;28;20544;-81
2021/10/11 00:09:49;;;;;;;;;;;23.10;57.80;;;;;;5214056;28;20661;-79
2021/10/11 00:12:24;;;;;;;9.93;5.95;;;23.10;57.90;;;;;;5211747;28;20107;-82
2021/10/11 00:14:56;;;;;;;9.00;5.78;;;23.10;57.90;;;;;;5212547;28;20045;-81
2021/10/11 00:17:29;;;;;;;11.27;6.45;;;23.10;57.90;;;;;;5181471;28;20052;-80
2021/10/11 00:20:01;;;;;;;8.80;5.88;;;23.10;57.90;;;;;;5209365;28;20060;-83
2021/10/11 00:22:34;;;;;;;10.50;5.70;;;23.10;57.90;;;;;;5214374;28;20044;-81
2021/10/11 00:25:08;;;;;;;10.90;5.80;;;23.10;57.90;;;;;;5196029;28;20067;-80
2021/10/11 00:27:40;;;;;;;11.93;6.07;;;23.10;57.90;;;;;;5210147;28;20049;-82
2021/10/11 00:30:13;;;;;;;7.85;5.53;;;23.10;57.90;;;;;;5211121;28;20045;-83
2021/10/11 00:32:47;;;;;;;9.85;6.35;;;23.10;57.90;;;;;;5200166;28;20045;-80
2021/10/11 00:35:19;;;;;;;10.93;6.43;;;23.10;57.90;;;;;;5197981;28;20057;-80
2021/10/11 00:37:52;;;;;;;9.40;5.70;;;23.10;57.90;;;;;;5213217;28;20057;-81
2021/10/11 00:40:25;;;;;;;10.97;5.90;;;23.10;57.90;;;;;;5211693;28;20337;-80
2021/10/11 00:42:57;;;;;;;9.80;5.85;;;23.10;57.90;;;;;;5207185;28;20291;-83
2021/10/11 00:45:30;;;;;;;13.40;5.75;;;23.10;57.90;;;;;;5213649;28;20041;-83
2021/10/11 00:48:03;;;;;;;12.20;6.20;;;23.10;58.00;;;;;;5212372;28;20383;-83
2021/10/11 00:50:36;;;;;;;9.95;5.80;;;23.10;58.00;;;;;;5210642;28;20549;-79
2021/10/11 00:53:09;;;;;;;16.20;6.63;;;23.10;58.00;;;;;;5211329;28;20128;-83
2021/10/11 00:55:41;;;;;;;10.93;6.53;;;23.10;58.00;;;;;;5214348;28;20295;-81
2021/10/11 00:58:14;;;;;;;17.30;6.32;;;23.10;58.00;;;;;;5213606;28;20487;-80
2021/10/11 01:00:47;;;;;;;11.65;5.88;;;23.00;58.00;;;;;;5203779;28;20053;-83
2021/10/11 01:03:19;;;;;;;11.70;5.60;;;23.10;58.00;;;;;;5191431;28;20487;-83
2021/10/11 01:05:52;;;;;;;17.50;5.97;;;23.10;58.00;;;;;;5192585;28;20125;-83
2021/10/11 01:08:25;;;;;;;12.90;6.47;;;23.10;58.00;;;;;;5215297;28;20403;-82
2021/10/11 01:10:57;;;;;;;10.52;6.13;;;23.10;58.00;;;;;;5214971;28;20045;-82
2021/10/11 01:13:30;;;;;;;11.63;5.90;;;23.00;58.00;;;;;;5212360;28;20056;-82
2021/10/11 01:16:03;;;;;;;15.25;6.15;;;23.10;58.10;;;;;;5208333;28;20637;-80
2021/10/11 01:18:35;;;;;;;15.33;5.73;;;23.00;58.00;;;;;;5213798;28;20052;-80
2021/10/11 01:21:08;;;;;;;15.25;6.50;;;23.10;58.10;;;;;;5215826;28;20296;-82
2021/10/11 01:23:40;;;;;;;15.23;6.43;;;23.00;58.00;;;;;;5212039;28;20269;-81
2021/10/11 01:26:13;;;;;;;13.35;5.97;;;23.00;58.00;;;;;;5191505;28;20056;-81
2021/10/11 01:28:46;;;;;;;10.68;6.00;;;23.00;58.00;;;;;;5210084;28;20063;-79
2021/10/11 01:31:18;;;;;;;18.75;7.30;;;23.00;58.00;;;;;;5209884;28;20041;-82
2021/10/11 01:33:51;;;;;;;14.65;6.65;;;23.00;58.00;;;;;;5214859;28;20643;-82
2021/10/11 01:36:24;;;;;;;9.95;6.00;;;23.00;58.00;;;;;;5210617;28;20041;-79
2021/10/11 01:39:00;;;;;;;9.98;5.72;;;23.00;58.00;;;;;;5211986;28;20045;-80
2021/10/11 01:41:32;;;;;;;13.57;6.38;;;23.00;58.00;;;;;;5211010;28;20044;-82
2021/10/11 01:44:05;;;;;;;9.43;5.70;;;23.00;58.00;;;;;;5197234;28;20049;-81
2021/10/11 01:46:38;;;;;;;14.55;6.38;;;23.00;58.00;;;;;;5210373;28;20040;-80
2021/10/11 01:49:10;;;;;;;8.50;5.78;;;23.00;58.00;;;;;;5173730;28;20444;-82
2021/10/11 01:51:43;;;;;;;11.80;5.25;;;23.00;58.00;;;;;;5209734;28;20045;-82
2021/10/11 01:54:15;;;;;;;8.20;5.35;;;23.00;58.00;;;;;;5201278;28;20485;-80
2021/10/11 01:56:48;;;;;;;9.77;5.57;;;23.00;58.00;;;;;;5198121;28;20048;-80
2021/10/11 01:59:20;;;;;;;10.77;5.70;;;23.00;58.00;;;;;;5216913;28;20059;-81
2021/10/11 02:01:53;;;;;;;14.80;5.72;;;23.00;58.00;;;;;;5211147;28;20051;-81
2021/10/11 02:04:26;;;;;;;16.27;6.68;;;23.00;58.00;;;;;;5209992;28;20076;-80
2021/10/11 02:06:58;;;;;;;8.45;5.93;;;23.00;58.00;;;;;;5211110;28;20049;-84
2021/10/11 02:09:31;;;;;;;6.45;5.03;;;23.00;58.00;;;;;;5198793;28;20403;-82
2021/10/11 02:12:04;;;;;;;10.55;6.03;;;23.00;58.00;;;;;;5197552;28;20075;-81
2021/10/11 02:14:36;;;;;;;7.23;5.27;;;23.00;58.00;;;;;;5195522;28;20041;-81
2021/10/11 02:17:09;;;;;;;8.18;5.25;;;23.00;58.00;;;;;;5207366;28;20049;-81
2021/10/11 02:19:41;;;;;;;8.65;5.72;;;23.00;58.00;;;;;;5210951;28;20056;-81
2021/10/11 02:22:14;;;;;;;10.52;6.20;;;23.00;58.10;;;;;;5214391;28;20453;-81
2021/10/11 02:24:46;;;;;;;11.65;5.75;;;23.00;58.10;;;;;;5212708;28;20095;-82
2021/10/11 02:27:19;;;;;;;16.50;6.68;;;23.00;58.10;;;;;;5189570;28;20045;-82
2021/10/11 02:29:51;;;;;;;16.45;5.68;;;23.00;58.10;;;;;;5210440;28;20056;-81
2021/10/11 02:32:30;;;;;;;14.02;5.95;;;23.00;58.10;;;;;;5211265;28;20060;-81
2021/10/11 02:35:04;;;;;;;14.38;6.30;;;23.00;58.10;;;;;;5196130;28;20051;-82
2021/10/11 02:37:38;;;;;;;15.35;5.90;;;23.00;58.10;;;;;;5176320;28;20442;-81
2021/10/11 02:40:11;;;;;;;15.25;6.03;;;23.00;58.00;;;;;;5208331;28;20060;-81
2021/10/11 02:42:43;;;;;;;12.38;5.50;;;23.00;58.00;;;;;;5210519;28;20049;-81
2021/10/11 02:45:16;;;;;;;11.80;6.27;;;23.00;58.00;;;;;;5195643;28;20049;-81
2021/10/11 02:47:48;;;;;;;14.80;5.25;;;23.00;57.90;;;;;;5182840;28;20045;-83
2021/10/11 02:50:21;;;;;;;8.75;5.25;;;23.00;57.90;;;;;;5191902;28;20406;-80
2021/10/11 02:52:53;;;;;;;10.13;5.15;;;23.00;57.80;;;;;;5210726;28;20045;-83
2021/10/11 02:55:26;;;;;;;11.40;6.25;;;23.00;57.80;;;;;;5198082;28;20037;-82
2021/10/11 02:57:59;;;;;;;12.00;5.53;;;23.00;57.80;;;;;;5213221;28;20041;-81
2021/10/11 03:00:31;;;;;;;8.90;4.70;;;23.00;57.80;;;;;;5193173;28;20565;-82
2021/10/11 03:03:04;;;;;;;8.35;5.55;;;23.00;57.80;;;;;;5209495;28;20525;-82
2021/10/11 03:05:36;;;;;;;11.15;5.65;;;23.00;57.70;;;;;;5224705;28;20045;-80
2021/10/11 03:08:09;;;;;;;11.40;5.63;;;23.00;57.70;;;;;;5212018;28;20044;-83
2021/10/11 03:10:42;;;;;;;13.10;5.88;;;23.00;57.70;;;;;;5195264;28;20057;-83
2021/10/11 03:13:14;;;;;;;8.05;5.15;;;23.00;57.70;;;;;;5209646;28;20502;-81
2021/10/11 03:15:47;;;;;;;8.20;5.30;;;23.00;58.30;;;;;;5208960;28;20502;-83
2021/10/11 03:18:19;;;;;;;6.47;4.93;;;23.00;57.70;;;;;;5209085;28;20052;-80
2021/10/11 03:20:52;;;;;;;9.43;5.10;;;23.00;57.60;;;;;;5211829;28;20470;-83
2021/10/11 03:23:25;;;;;;;8.32;4.60;;;23.00;57.60;;;;;;5211780;28;20455;-81
2021/10/11 03:25:57;;;;;;;7.82;5.35;;;23.00;57.60;;;;;;5207113;28;20041;-82
2021/10/11 03:28:30;;;;;;;8.00;4.25;;;23.00;57.60;;;;;;5212066;28;20430;-82
2021/10/11 03:31:03;;;;;;;8.60;5.03;;;23.00;57.50;;;;;;5211566;28;20479;-83
2021/10/11 03:33:35;;;;;;;6.47;4.20;;;22.90;57.50;;;;;;5211405;28;20045;-80
2021/10/11 03:36:08;;;;;;;9.00;5.03;;;22.90;57.50;;;;;;5212293;28;20049;-81
2021/10/11 03:38:41;;;;;;;6.97;4.65;;;23.00;57.50;;;;;;5208758;28;20497;-84
2021/10/11 03:41:13;;;;;;;6.22;4.93;;;22.90;57.50;;;;;;5205283;28;20052;-81
2021/10/11 03:43:46;;;;;;;8.57;4.93;;;22.90;57.50;;;;;;5211033;28;20041;-81
2021/10/11 03:46:18;;;;;;;9.13;5.25;;;23.00;57.50;;;;;;5210022;28;20049;-83
2021/10/11 03:48:51;;;;;;;14.95;5.50;;;22.90;57.40;;;;;;5190721;28;20045;-81
2021/10/11 03:51:23;;;;;;;6.38;4.43;;;22.90;57.40;;;;;;5211491;28;20049;-82
2021/10/11 03:53:56;;;;;;;6.53;4.72;;;22.90;57.40;;;;;;5191155;28;20045;-81
2021/10/11 03:56:28;;;;;;;6.45;5.20;;;22.90;57.40;;;;;;5209072;28;20053;-80
2021/10/11 03:59:01;;;;;;;7.00;5.00;;;22.90;57.40;;;;;;5196076;28;20064;-81
2021/10/11 04:01:33;;;;;;;6.18;4.72;;;22.90;57.40;;;;;;5178796;28;20059;-83
2021/10/11 04:04:08;;;;;;;6.65;4.50;;;22.90;57.40;;;;;;5175075;28;20059;-83
2021/10/11 04:06:41;;;;;;;5.57;4.32;;;22.90;57.40;;;;;;5194493;28;20052;-84
2021/10/11 04:09:13;;;;;;;8.15;4.82;;;22.90;57.40;;;;;;5207501;28;20045;-82
2021/10/11 04:11:46;;;;;;;5.78;4.47;;;22.90;57.40;;;;;;5211246;28;20045;-82
2021/10/11 04:14:18;;;;;;;7.67;4.80;;;22.90;57.40;;;;;;5196417;28;20065;-80
2021/10/11 04:16:51;;;;;;;8.40;4.50;;;22.90;57.40;;;;;;5199941;28;22041;-82
2021/10/11 04:19:23;;;;;;;8.77;4.53;;;22.90;57.40;;;;;;5179151;28;20064;-83
2021/10/11 04:21:56;;;;;;;6.18;4.38;;;22.90;57.40;;;;;;5200989;28;20056;-82
2021/10/11 04:24:28;;;;;;;8.90;4.50;;;22.90;57.30;;;;;;5194729;28;20064;-80
2021/10/11 04:27:01;;;;;;;7.00;4.72;;;22.90;57.30;;;;;;5195371;28;20726;-83
2021/10/11 04:29:33;;;;;;;4.57;4.13;;;22.90;57.30;;;;;;5199316;28;20045;-81
2021/10/11 04:32:06;;;;;;;14.82;4.68;;;22.90;57.50;;;;;;5205480;28;20049;-82
2021/10/11 04:34:39;;;;;;;7.30;4.75;;;22.90;57.30;;;;;;5194297;28;20048;-82
2021/10/11 04:37:11;;;;;;;8.60;5.25;;;22.90;57.30;;;;;;5195414;28;20064;-79
2021/10/11 04:39:44;;;;;;;11.30;4.50;;;22.90;57.50;;;;;;5212586;28;20053;-80
2021/10/11 04:42:17;;;;;;;9.07;4.78;;;22.90;57.50;;;;;;5199170;28;20411;-79
2021/10/11 04:44:49;;;;;;;8.75;4.70;;;23.00;57.50;;;;;;5171588;28;20057;-81
2021/10/11 04:47:22;;;;;;;13.43;4.80;;;23.00;57.50;;;;;;5202688;28;21132;-78
2021/10/11 04:49:55;;;;;;;9.10;4.22;;;23.00;57.50;;;;;;5185272;28;20057;-79
2021/10/11 04:52:27;;;;;;;7.47;4.47;;;23.00;57.50;;;;;;5200389;28;20049;-80
2021/10/11 04:55:00;;;;;;;9.00;4.40;;;23.00;57.40;;;;;;5202920;28;20394;-79
2021/10/11 04:57:32;;;;;;;6.25;4.35;;;23.00;57.40;;;;;;5202633;28;20056;-80
2021/10/11 05:00:06;;;;;;;7.63;4.32;;;23.00;57.40;;;;;;5205425;28;20053;-79
2021/10/11 05:02:40;;;;;;;;;;;23.00;57.30;;;;;;5182610;28;20743;-78
2021/10/11 05:05:12;;;;;;;5.65;4.50;;;23.00;57.30;;;;;;5184244;28;20294;-81
2021/10/11 05:07:45;;;;;;;7.30;4.80;;;23.00;57.30;;;;;;5180266;28;20063;-80
2021/10/11 05:10:17;;;;;;;19.77;4.68;;;23.00;57.30;;;;;;5220502;28;20546;-78
2021/10/11 05:12:50;;;;;;;8.93;4.17;;;23.00;57.30;;;;;;5216686;28;20037;-80
2021/10/11 05:15:22;;;;;;;12.52;4.70;;;23.10;57.30;;;;;;5208541;28;20048;-80
2021/10/11 05:17:55;;;;;;;13.98;4.90;;;23.10;57.30;;;;;;5196193;28;20048;-79
2021/10/11 05:20:34;;;;;;;6.60;4.32;;;23.10;57.40;;;;;;5200362;28;20049;-79
2021/10/11 05:23:07;;;;;;;11.20;5.13;;;23.10;57.50;;;;;;5218069;28;20056;-79
2021/10/11 05:25:39;;;;;;;13.90;5.18;;;23.10;57.50;;;;;;5200944;28;20499;-81
2021/10/11 05:28:11;;;;;;;8.60;5.60;;;23.10;56.60;;;;;;5206471;28;20041;-80
2021/10/11 05:30:48;;;;;;;15.45;5.90;;;23.10;53.40;;;;;;5194354;28;20048;-79
2021/10/11 05:33:22;;;;;;;8.85;5.85;;;23.00;51.50;;;;;;5179980;28;20048;-81
2021/10/11 05:35:55;;;;;;;12.70;5.82;;;22.90;51.10;;;;;;5211235;28;20048;-78
2021/10/11 05:38:27;;;;;;;9.47;5.80;;;22.80;50.60;;;;;;5210779;28;20124;-80
2021/10/11 05:41:01;;;;;;;11.53;5.83;;;22.80;49.30;;;;;;5221658;28;20045;-78
2021/10/11 05:43:33;;;;;;;8.07;6.07;;;22.70;48.70;;;;;;5204186;28;20059;-78
2021/10/11 05:46:06;;;;;;;9.50;5.47;;;22.70;48.00;;;;;;5203104;28;20050;-78
2021/10/11 05:48:41;;;;;;;8.60;6.22;;;22.60;47.50;;;;;;5208317;28;20045;-78
2021/10/11 05:51:14;;;;;;;8.97;5.70;;;22.50;47.20;;;;;;5210691;28;20041;-81
2021/10/11 05:53:46;;;;;;;8.07;4.75;;;22.50;48.40;;;;;;5189837;28;20553;-80
2021/10/11 05:56:19;;;;;;;6.65;4.90;;;22.50;48.80;;;;;;5199674;28;20045;-80
2021/10/11 05:58:51;;;;;;;7.05;5.15;;;22.50;49.40;;;;;;5209314;28;20061;-80
2021/10/11 06:01:26;;;;;;;7.22;4.82;;;22.50;50.00;;;;;;5208221;28;20064;-77
2021/10/11 06:03:58;;;;;;;6.95;4.47;;;22.50;50.30;;;;;;5185473;28;20049;-78
2021/10/11 06:06:31;;;;;;;9.90;4.53;;;22.50;50.60;;;;;;5198351;28;20049;-80
2021/10/11 06:09:04;;;;;;;7.70;4.43;;;22.60;50.90;;;;;;5206124;28;20045;-80
2021/10/11 06:11:39;;;;;;;6.68;4.85;;;22.60;50.90;;;;;;5220103;28;20041;-79
2021/10/11 06:14:11;;;;;;;5.95;4.32;;;22.60;51.10;;;;;;5167067;28;20053;-78
2021/10/11 06:16:44;;;;;;;8.00;4.78;;;22.60;51.20;;;;;;5185215;28;20052;-79
2021/10/11 06:19:19;;;;;;;7.95;4.53;;;22.60;51.40;;;;;;5200068;28;20067;-80
2021/10/11 06:21:51;;;;;;;6.93;4.40;;;22.70;51.50;;;;;;5168393;28;22447;-80
2021/10/11 06:24:27;;;;;;;7.63;4.53;;;22.70;51.60;;;;;;5165596;28;20064;-79
2021/10/11 06:27:03;;;;;;;6.30;4.10;;;22.70;51.70;;;;;;5193740;28;20045;-79
2021/10/11 06:29:35;;;;;;;7.25;4.60;;;22.70;51.70;;;;;;5199480;28;20092;-80
2021/10/11 06:32:07;;;;;;;6.47;4.25;;;22.80;51.90;;;;;;5182565;28;20048;-80
2021/10/11 06:34:40;;;;;;;8.05;4.35;;;22.80;52.00;;;;;;5187110;28;20877;-79
2021/10/11 06:37:13;;;;;;;4.63;4.15;;;22.80;52.00;;;;;;5204405;28;20053;-78
2021/10/11 06:39:45;;;;;;;8.13;5.57;;;22.80;52.10;;;;;;5196398;28;20041;-78
2021/10/11 06:42:18;;;;;;;5.00;4.07;;;22.80;52.20;;;;;;5204768;28;20472;-78
2021/10/11 06:44:50;;;;;;;6.53;4.60;;;22.80;52.20;;;;;;5207536;28;20045;-78
2021/10/11 06:47:23;;;;;;;5.75;4.28;;;22.80;52.20;;;;;;5203083;28;20743;-78
2021/10/11 06:49:55;;;;;;;6.80;4.40;;;22.80;52.40;;;;;;5208077;28;20041;-78
2021/10/11 06:52:27;;;;;;;7.07;4.70;;;22.80;52.40;;;;;;5200984;28;20037;-78
2021/10/11 06:55:00;;;;;;;6.63;4.45;;;22.80;52.40;;;;;;5205440;28;20052;-78
2021/10/11 06:57:33;;;;;;;8.07;4.43;;;22.80;52.40;;;;;;5201675;28;20041;-78
2021/10/11 07:00:06;;;;;;;6.82;4.35;;;22.90;52.50;;;;;;5202024;28;20040;-78
2021/10/11 07:02:39;;;;;;;12.32;5.00;;;22.90;53.10;;;;;;5207772;28;20525;-78
2021/10/11 07:05:12;;;;;;;10.52;5.07;;;22.90;52.60;;;;;;5187615;28;20457;-78
2021/10/11 07:07:46;;;;;;;7.53;4.57;;;22.90;52.70;;;;;;5205428;28;20978;-79
2021/10/11 07:10:18;;;;;;;7.18;4.30;;;22.90;52.60;;;;;;5196592;28;20605;-78
2021/10/11 07:12:51;;;;;;;10.20;5.07;;;22.90;52.60;;;;;;5206417;28;20052;-78
2021/10/11 07:15:24;;;;;;;10.20;4.72;;;22.90;52.70;;;;;;5203498;28;20551;-78
2021/10/11 07:17:57;;;;;;;7.97;4.65;;;23.00;52.70;;;;;;5218451;28;20704;-78
2021/10/11 07:20:29;;;;;;;9.40;5.10;;;23.00;52.70;;;;;;5205382;28;20379;-78
2021/10/11 07:23:02;;;;;;;6.38;4.40;;;23.00;52.60;;;;;;5207618;28;20064;-78
2021/10/11 07:25:34;;;;;;;6.35;4.57;;;23.00;52.70;;;;;;5206952;28;20064;-78
2021/10/11 07:28:07;;;;;;;6.38;4.22;;;23.00;52.70;;;;;;5204264;28;20627;-78
2021/10/11 07:30:40;;;;;;;7.40;4.05;;;23.00;52.70;;;;;;5202205;28;20601;-78
2021/10/11 07:33:12;;;;;;;8.90;4.45;;;23.00;52.70;;;;;;5203133;28;20052;-78
2021/10/11 07:35:45;;;;;;;7.30;4.88;;;23.00;52.70;;;;;;5221250;28;20048;-78
2021/10/11 07:38:18;;;;;;;6.55;3.97;;;23.00;52.80;;;;;;5204652;28;20055;-78
2021/10/11 07:40:53;;;;;;;6.68;4.00;;;23.00;52.80;;;;;;5218632;28;20060;-78
2021/10/11 07:43:26;;;;;;;8.27;4.35;;;23.00;52.80;;;;;;5201874;28;21229;-79
2021/10/11 07:46:03;;;;;;;6.72;4.18;;;23.00;52.80;;;;;;5207787;28;20064;-79
2021/10/11 07:48:35;;;;;;;9.23;4.32;;;23.00;53.00;;;;;;5204380;28;20506;-79
2021/10/11 07:51:08;;;;;;;6.60;4.63;;;23.10;52.90;;;;;;5188664;28;20612;-78
2021/10/11 07:53:41;;;;;;;6.33;4.90;;;23.10;52.90;;;;;;5203921;28;20055;-78
2021/10/11 07:56:13;;;;;;;6.17;4.40;;;23.00;52.80;;;;;;5205770;28;20414;-79
2021/10/11 07:58:46;;;;;;;6.97;4.28;;;23.00;52.90;;;;;;5207273;28;20303;-79
2021/10/11 08:01:18;;;;;;;8.40;4.40;;;23.10;52.90;;;;;;5194412;28;20394;-79
2021/10/11 08:03:51;;;;;;;5.07;4.07;;;23.10;52.90;;;;;;5203992;28;20755;-78
2021/10/11 08:06:23;;;;;;;7.05;4.00;;;23.10;53.00;;;;;;5192118;28;20318;-79
2021/10/11 08:08:56;;;;;;;5.30;3.58;;;23.10;53.60;;;;;;5206329;28;20406;-78
2021/10/11 08:11:29;;;;;;;6.47;3.95;;;23.10;53.00;;;;;;5204121;28;20049;-79
2021/10/11 08:14:03;;;;;;;6.63;4.27;;;23.10;53.10;;;;;;5207240;28;20049;-78
2021/10/11 08:16:38;;;;;;;8.65;4.45;;;23.10;53.70;;;;;;5211640;28;20772;-79
2021/10/11 08:19:11;;;;;;;5.82;4.47;;;23.10;53.10;;;;;;5211090;28;20055;-78
2021/10/11 08:21:43;;;;;;;6.53;4.20;;;23.10;53.10;;;;;;5211116;28;20074;-78
2021/10/11 08:24:16;;;;;;;6.30;4.00;;;23.10;53.10;;;;;;5183797;28;20056;-79
2021/10/11 08:26:48;;;;;;;8.68;4.95;;;23.10;53.10;;;;;;5194593;28;20376;-79
2021/10/11 08:29:21;;;;;;;9.23;4.93;;;23.10;53.10;;;;;;5205607;28;20049;-79
2021/10/11 08:31:54;;;;;;;7.30;4.13;;;23.10;53.20;;;;;;5203937;28;20049;-78
2021/10/11 08:34:26;;;;;;;7.15;4.03;;;23.10;53.20;;;;;;5193249;28;20057;-78
2021/10/11 08:36:59;;;;;;;5.00;3.80;;;23.10;53.20;;;;;;5218052;28;20580;-78
2021/10/11 08:39:31;;;;;;;7.03;4.20;;;23.10;53.20;;;;;;5205284;28;20855;-78
2021/10/11 08:42:04;;;;;;;8.15;4.00;;;23.10;53.20;;;;;;5199255;28;20414;-79
2021/10/11 08:44:37;;;;;;;9.63;3.95;;;23.10;53.20;;;;;;5185066;28;20048;-79
2021/10/11 08:47:12;;;;;;;7.07;3.90;;;23.10;53.30;;;;;;5205015;28;20059;-79
2021/10/11 08:49:46;;;;;;;9.35;4.10;;;23.10;53.30;;;;;;5198849;28;20614;-78
2021/10/11 08:52:28;;;;;;;6.35;4.18;;;23.10;53.20;;;;;;5166474;28;20037;-78
2021/10/11 08:55:01;;;;;;;8.05;4.22;;;23.10;53.40;;;;;;5201963;28;20045;-79
2021/10/11 08:57:34;;;;;;;9.80;4.43;;;23.10;53.40;;;;;;5203988;28;20041;-78
2021/10/11 09:00:07;;;;;;;;;;;23.10;53.40;;;;;;5193695;28;20057;-78
2021/10/11 09:02:54;;;;;;;10.25;4.00;;;23.10;53.60;;;;;;5183429;28;20515;-78
2021/10/11 09:05:32;;;;;;;8.20;3.88;;;23.10;53.70;;;;;;5192697;28;20056;-78
2021/10/11 09:08:14;;;;;;;10.13;4.75;;;23.10;53.70;;;;;;5205609;28;20053;-78
2021/10/11 09:10:55;;;;;;;15.98;4.20;;;23.10;53.80;;;;;;5197478;28;20739;-79
2021/10/11 09:13:31;;;;;;;11.70;4.60;;;23.10;53.70;;;;;;5197167;28;20056;-79
2021/10/11 09:16:04;;;;;;;20.33;5.20;;;23.20;54.00;;;;;;5190836;28;20356;-78
2021/10/11 09:18:39;;;;;;;10.93;4.67;;;23.10;53.40;;;;;;5184124;28;20076;-77
2021/10/11 09:21:12;;;;;;;9.85;4.57;;;23.10;52.60;;;;;;5186338;28;20984;-79
2021/10/11 09:23:44;;;;;;;12.63;4.53;;;23.10;52.30;;;;;;5172522;28;20061;-78
2021/10/11 09:26:20;;;;;;;8.52;4.63;;;23.00;52.50;;;;;;5206356;28;20053;-78
2021/10/11 09:28:55;;;;;;;7.88;4.90;;;23.10;52.20;;;;;;5205897;28;20691;-78
2021/10/11 09:31:42;;;;;;;11.65;4.88;;;23.00;51.70;;;;;;5177581;28;20045;-78
2021/10/11 09:34:20;;;;;;;7.28;4.63;;;23.00;51.80;;;;;;5191455;28;20048;-79
2021/10/11 09:37:04;;;;;;;13.18;5.15;;;23.00;52.00;;;;;;5157079;28;20053;-78
2021/10/11 09:39:39;;;;;;;9.95;4.43;;;23.00;52.20;;;;;;5190997;28;20057;-79
2021/10/11 09:42:16;;;;;;;8.05;4.40;;;23.00;52.40;;;;;;5194533;28;20053;-78
2021/10/11 09:44:52;;;;;;;7.35;4.43;;;23.10;52.50;;;;;;5198466;28;20064;-79
2021/10/11 09:47:30;;;;;;;11.30;4.60;;;23.00;52.60;;;;;;5190377;28;20209;-79
2021/10/11 09:50:12;;;;;;;7.75;4.35;;;23.10;52.80;;;;;;5190356;28;20060;-79
2021/10/11 09:52:45;;;;;;;13.75;4.82;;;23.10;52.90;;;;;;5193194;28;20065;-80
2021/10/11 09:55:18;;;;;;;8.80;4.32;;;23.10;53.10;;;;;;5205828;28;20249;-79
2021/10/11 09:57:51;;;;;;;11.30;4.72;;;23.10;53.20;;;;;;5203541;28;20056;-78
2021/10/11 10:00:27;;;;;;;5.03;3.97;;;23.10;53.30;;;;;;5199355;28;20429;-80
2021/10/11 10:03:00;;;;;;;7.97;4.53;;;23.10;53.40;;;;;;5190879;28;20053;-78
2021/10/11 10:05:37;;;;;;;11.05;5.03;;;23.10;53.50;;;;;;5202405;28;20049;-78
2021/10/11 10:08:19;;;;;;;8.43;4.03;;;23.20;53.70;;;;;;5210745;28;20115;-79
2021/10/11 10:10:55;;;;;;;6.93;4.57;;;23.10;53.80;;;;;;5190527;28;20054;-79
2021/10/11 10:13:29;;;;;;;10.20;4.85;;;23.20;54.00;;;;;;5183565;28;20304;-78
2021/10/11 10:16:10;;;;;;;8.32;5.03;;;23.20;54.00;;;;;;5198231;28;20473;-80
2021/10/11 10:18:44;;;;;;;10.18;4.05;;;23.20;54.00;;;;;;5205078;28;20048;-79
2021/10/11 10:21:17;;;;;;;10.40;4.28;;;23.20;54.10;;;;;;5193898;28;20041;-80
2021/10/11 10:23:56;;;;;;;6.60;4.70;;;23.20;54.10;;;;;;5174559;28;20418;-77
2021/10/11 10:26:34;;;;;;;7.15;4.38;;;23.20;54.20;;;;;;5193830;28;20041;-78
2021/10/11 10:29:18;;;;;;;6.28;4.40;;;23.20;54.20;;;;;;5196148;28;20517;-80
2021/10/11 10:31:51;;;;;;;11.05;4.68;;;23.30;54.40;;;;;;5206675;28;20124;-79
2021/10/11 10:34:24;;;;;;;9.43;4.50;;;23.30;54.40;;;;;;5201621;28;20050;-78
2021/10/11 10:37:01;;;;;;;7.95;4.10;;;23.30;54.30;;;;;;5192786;28;20056;-78
2021/10/11 10:39:42;;;;;;;5.97;4.03;;;23.40;54.40;;;;;;5199489;28;20037;-79
2021/10/11 10:42:26;;;;;;;7.78;4.53;;;23.40;54.40;;;;;;5198312;28;20056;-77
2021/10/11 10:45:01;;;;;;;6.30;4.28;;;23.40;54.50;;;;;;5194335;28;20045;-80
2021/10/11 10:47:38;;;;;;;6.25;4.10;;;23.40;54.50;;;;;;5185318;28;20785;-80
2021/10/11 10:50:17;;;;;;;7.65;4.18;;;23.50;54.60;;;;;;5191836;28;20048;-80
2021/10/11 10:52:55;;;;;;;8.93;3.97;;;23.50;54.70;;;;;;5200981;28;20056;-79
2021/10/11 10:55:28;;;;;;;9.43;4.43;;;23.50;54.70;;;;;;5196491;28;20045;-80
2021/10/11 10:58:04;;;;;;;5.97;4.13;;;23.60;54.80;;;;;;5191282;28;20048;-79
2021/10/11 11:00:38;;;;;;;6.32;3.97;;;23.60;54.80;;;;;;5194027;28;20037;-77
2021/10/11 11:03:13;;;;;;;13.68;4.63;;;23.70;54.80;;;;;;5188673;28;20502;-80
2021/10/11 11:05:50;;;;;;;6.25;4.13;;;23.70;54.80;;;;;;5198110;28;20045;-80
2021/10/11 11:08:43;;;;;;;8.85;3.72;;;23.80;54.80;;;;;;5189915;28;20060;-80
2021/10/11 11:11:16;;;;;;;10.15;3.92;;;23.80;54.70;;;;;;5197440;28;20041;-79
2021/10/11 11:13:53;;;;;;;7.90;4.20;;;23.90;54.70;;;;;;5197290;28;20045;-80
2021/10/11 11:16:30;;;;;;;6.65;4.00;;;24.00;54.80;;;;;;5196393;28;20494;-79
2021/10/11 11:19:04;;;;;;;7.60;4.63;;;24.00;54.70;;;;;;5195604;28;20049;-79
2021/10/11 11:21:37;;;;;;;7.22;3.70;;;24.10;54.70;;;;;;5189099;28;20648;-80
2021/10/11 11:24:09;;;;;;;5.32;3.85;;;24.20;54.70;;;;;;5175211;28;20049;-80
2021/10/11 11:26:46;;;;;;;10.63;3.65;;;24.20;54.60;;;;;;5196607;28;20052;-79
2021/10/11 11:29:18;;;;;;;9.02;3.70;;;24.40;54.20;;;;;;5198424;28;20099;-80
2021/10/11 11:31:52;;;;;;;9.03;4.47;;;24.40;53.90;;;;;;5191843;28;20055;-80
2021/10/11 11:34:44;;;;;;;5.30;3.90;;;24.40;54.10;;;;;;5205619;28;20056;-79
2021/10/11 11:37:17;;;;;;;10.57;4.27;;;24.50;53.60;;;;;;5183772;28;20048;-79
2021/10/11 11:39:49;;;;;;;6.63;4.53;;;24.50;53.40;;;;;;5176395;28;20310;-80
2021/10/11 11:42:29;;;;;;;9.23;4.40;;;24.60;53.30;;;;;;5173672;28;20064;-80
2021/10/11 11:45:02;;;;;;;8.13;4.25;;;24.70;53.30;;;;;;5187795;28;20053;-79
2021/10/11 11:47:35;;;;;;;11.43;4.50;;;24.70;53.30;;;;;;5201234;28;20044;-80
2021/10/11 11:50:16;;;;;;;9.68;4.43;;;24.70;53.20;;;;;;5198640;28;20502;-79
2021/10/11 11:53:17;;;;;;;9.32;4.57;;;24.80;53.10;;;;;;5195428;28;20438;-80
2021/10/11 11:55:52;;;;;;;13.85;4.53;;;24.80;53.00;;;;;;5205270;28;20068;-80
2021/10/11 11:58:26;;;;;;;6.35;4.10;;;24.90;53.00;;;;;;5182785;28;20520;-79
2021/10/11 12:01:03;;;;;;;11.02;4.47;;;24.90;52.90;;;;;;5195841;28;20045;-79
2021/10/11 12:03:43;;;;;;;8.52;4.22;;;24.90;52.80;;;;;;5179857;28;20056;-81
2021/10/11 12:06:17;;;;;;;9.77;4.45;;;25.00;52.90;;;;;;5189583;28;20042;-78
2021/10/11 12:08:49;;;;;;;9.63;4.28;;;25.00;52.80;;;;;;5183351;28;20666;-79
2021/10/11 12:11:22;;;;;;;8.37;3.90;;;25.10;52.70;;;;;;5186455;28;20906;-80
2021/10/11 12:13:59;;;;;;;7.73;4.10;;;25.10;52.70;;;;;;5187074;28;20045;-80
2021/10/11 12:16:32;;;;;;;17.27;4.47;;;25.10;52.70;;;;;;5197881;28;20037;-79
2021/10/11 12:19:05;;;;;;;12.15;4.40;;;25.20;52.70;;;;;;5185882;28;20033;-79
2021/10/11 12:21:42;;;;;;;11.55;5.22;;;25.20;52.60;;;;;;5195657;28;20052;-79
2021/10/11 12:24:18;;;;;;;9.38;4.10;;;25.30;52.60;;;;;;5190762;28;20160;-78
2021/10/11 12:27:00;;;;;;;7.93;3.40;;;25.30;52.50;;;;;;5185275;28;20060;-81
2021/10/11 12:29:36;;;;;;;9.02;4.07;;;25.30;52.50;;;;;;5167541;28;20398;-81
2021/10/11 12:32:10;;;;;;;7.05;3.97;;;25.40;52.50;;;;;;5170010;28;20045;-80
2021/10/11 12:34:47;;;;;;;6.53;4.45;;;25.40;52.40;;;;;;5180168;28;20045;-79
2021/10/11 12:37:21;;;;;;;9.15;3.97;;;25.40;52.40;;;;;;5185630;28;20558;-78
2021/10/11 12:39:55;;;;;;;10.35;4.20;;;25.50;52.40;;;;;;5194342;28;20060;-76
2021/10/11 12:42:28;;;;;;;7.95;4.07;;;25.40;52.30;;;;;;5172746;28;20510;-77
2021/10/11 12:45:02;;;;;;;11.48;4.30;;;25.50;52.30;;;;;;5186480;28;20054;-77
2021/10/11 12:47:36;;;;;;;9.82;4.32;;;25.50;52.40;;;;;;5173772;28;20045;-77
2021/10/11 12:50:15;;;;;;;12.20;4.10;;;25.50;52.50;;;;;;5200708;28;20641;-78
2021/10/11 12:52:48;;;;;;;9.65;4.53;;;25.60;52.70;;;;;;5204918;28;20060;-77
2021/10/11 12:55:25;;;;;;;10.85;4.47;;;25.60;52.70;;;;;;5180390;28;20497;-80
2021/10/11 12:58:06;;;;;;;7.70;4.10;;;25.60;52.80;;;;;;5182257;28;20268;-79
2021/10/11 13:00:39;;;;;;;11.93;3.90;;;25.60;52.90;;;;;;5172951;28;20472;-78
2021/10/11 13:03:12;;;;;;;11.67;4.47;;;25.70;53.00;;;;;;5194710;28;20056;-78
2021/10/11 13:05:45;;;;;;;13.88;4.40;;;25.70;53.00;;;;;;5179278;28;20312;-78
2021/10/11 13:08:17;;;;;;;10.93;4.60;;;25.70;53.20;;;;;;5186462;28;20044;-78
2021/10/11 13:10:50;;;;;;;6.10;3.70;;;25.70;53.10;;;;;;5163873;28;20059;-79
2021/10/11 13:13:22;;;;;;;13.80;4.47;;;25.70;52.40;;;;;;5170028;28;20052;-77
2021/10/11 13:15:55;;;;;;;6.53;3.58;;;25.70;51.90;;;;;;5175978;28;20056;-77
2021/10/11 13:18:27;;;;;;;6.07;4.30;;;25.70;51.60;;;;;;5147971;28;20040;-78